WXM80 ListenWXM80 Stop

You find our weather info also at:

UK Metoffice

WeatherCloud

Weather Underground

Northeastern Weather Network

AWEKAS

Citizen Weather Observer Program (CWOP)

HAMweather, WeatherForYou, PWS Weather


Weather Underground History page Text

Daily Summary for July 19, 2017 Units:  Both    English   Metric
« Previous Day
Next Day »
Daily Weekly Monthly Yearly Custom
  High: Low: Average:
Temperature: 97.3 °F /  36.3 °C 73.9 °F /  23.3 °C 84.1 °F /  28.9 °C
Dew Point: 80.0 °F /  26.7 °C 64.5 °F /  18.1 °C 73 °F /  22.8 °C
Humidity: 94 % 35 % 73 %
Wind Speed: 8.2 mph /  13.2 km/h - 1.4 mph /  2.3 km/h
Wind Gust: 12.7 mph /  20.4 km/h - -
Wind:- - WSW
Pressure: 30.01 in /  1016.1 hPa 29.89 in /  1012.1 hPa -
Precipitation: 0.00 in /  0 mm    
Historical Graphs
 
 
Tabular Data for July 19, 2017
Time Temperature Dew Point Pressure Wind Wind Speed Wind Gust Humidity Rainfall Rate (Hourly)
00:01 76.2 °F /  24.6 °C 72.7 °F /  22.6 °C 30.01 in /  1016.1 hPa WSW 1.1 mph /  1.8 km/h 3.5 mph /  5.6 km/h 89 % 0.00 in /  0 mm
00:06 76.2 °F /  24.6 °C 73.1 °F /  22.8 °C 30.01 in /  1016.1 hPa SW 1.1 mph /  1.8 km/h 3.5 mph /  5.6 km/h 90 % 0.00 in /  0 mm
00:11 76.2 °F /  24.6 °C 73.1 °F /  22.8 °C 30.01 in /  1016.1 hPa SW 0.3 mph /  0.5 km/h 2.3 mph /  3.7 km/h 90 % 0.00 in /  0 mm
00:16 76.2 °F /  24.6 °C 73.1 °F /  22.8 °C 30.01 in /  1016.1 hPa WSW 1.3 mph /  2.1 km/h 9.2 mph /  14.8 km/h 90 % 0.00 in /  0 mm
00:21 76.1 °F /  24.5 °C 73.0 °F /  22.8 °C 30.01 in /  1016.1 hPa SW 0.5 mph /  0.8 km/h 1.2 mph /  1.9 km/h 90 % 0.00 in /  0 mm
00:26 76.1 °F /  24.5 °C 73.0 °F /  22.8 °C 30.01 in /  1016.1 hPa SW 1.7 mph /  2.7 km/h 3.5 mph /  5.6 km/h 90 % 0.00 in /  0 mm
00:28 76.1 °F /  24.5 °C 73.0 °F /  22.8 °C 30.01 in /  1016.1 hPa WSW 1.4 mph /  2.3 km/h 5.8 mph /  9.3 km/h 90 % 0.00 in /  0 mm
00:34 76.1 °F /  24.5 °C 73.0 °F /  22.8 °C 30.01 in /  1016.1 hPa SW 1.4 mph /  2.3 km/h 3.5 mph /  5.6 km/h 90 % 0.00 in /  0 mm
00:39 76.0 °F /  24.4 °C 72.5 °F /  22.5 °C 30.01 in /  1016.1 hPa WSW 1.7 mph /  2.7 km/h 5.0 mph /  8 km/h 89 % 0.00 in /  0 mm
00:44 76.0 °F /  24.4 °C 72.5 °F /  22.5 °C 30.00 in /  1015.8 hPa SW 1.0 mph /  1.6 km/h 2.3 mph /  3.7 km/h 89 % 0.00 in /  0 mm
00:49 76.0 °F /  24.4 °C 72.5 °F /  22.5 °C 30.00 in /  1015.8 hPa SW 1.3 mph /  2.1 km/h 3.5 mph /  5.6 km/h 89 % 0.00 in /  0 mm
00:54 75.9 °F /  24.4 °C 72.4 °F /  22.4 °C 30.00 in /  1015.8 hPa West 2.0 mph /  3.2 km/h 3.5 mph /  5.6 km/h 89 % 0.00 in /  0 mm
00:59 75.9 °F /  24.4 °C 72.4 °F /  22.4 °C 30.00 in /  1015.8 hPa SW 1.2 mph /  1.9 km/h 4.6 mph /  7.4 km/h 89 % 0.00 in /  0 mm
01:04 75.9 °F /  24.4 °C 72.4 °F /  22.4 °C 30.00 in /  1015.8 hPa SW 1.6 mph /  2.6 km/h 5.8 mph /  9.3 km/h 89 % 0.00 in /  0 mm
01:09 75.8 °F /  24.3 °C 72.3 °F /  22.4 °C 30.00 in /  1015.8 hPa WSW 1.6 mph /  2.6 km/h 3.5 mph /  5.6 km/h 89 % 0.00 in /  0 mm
01:14 75.8 °F /  24.3 °C 72.3 °F /  22.4 °C 30.00 in /  1015.8 hPa WSW 1.7 mph /  2.7 km/h 4.6 mph /  7.4 km/h 89 % 0.00 in /  0 mm
01:19 75.8 °F /  24.3 °C 72.3 °F /  22.4 °C 30.00 in /  1015.8 hPa SSW 0.1 mph /  0.2 km/h 3.5 mph /  5.6 km/h 89 % 0.00 in /  0 mm
01:24 75.7 °F /  24.3 °C 72.2 °F /  22.3 °C 30.01 in /  1016.1 hPa SW 0.2 mph /  0.3 km/h 1.2 mph /  1.9 km/h 89 % 0.00 in /  0 mm
01:29 75.7 °F /  24.3 °C 72.2 °F /  22.3 °C 30.01 in /  1016.1 hPa WSW 1.5 mph /  2.4 km/h 3.5 mph /  5.6 km/h 89 % 0.00 in /  0 mm
01:34 75.7 °F /  24.3 °C 72.2 °F /  22.3 °C 30.01 in /  1016.1 hPa SW 1.1 mph /  1.8 km/h 6.9 mph /  11.1 km/h 89 % 0.00 in /  0 mm
01:39 75.7 °F /  24.3 °C 72.2 °F /  22.3 °C 30.00 in /  1015.8 hPa SW 0.7 mph /  1.1 km/h 3.5 mph /  5.6 km/h 89 % 0.00 in /  0 mm
01:44 75.6 °F /  24.2 °C 72.1 °F /  22.3 °C 30.00 in /  1015.8 hPa SW 0.3 mph /  0.5 km/h 3.5 mph /  5.6 km/h 89 % 0.00 in /  0 mm
01:49 75.6 °F /  24.2 °C 72.1 °F /  22.3 °C 30.01 in /  1016.1 hPa SSW 0.6 mph /  1 km/h 2.3 mph /  3.7 km/h 89 % 0.00 in /  0 mm
01:55 75.5 °F /  24.2 °C 72.0 °F /  22.2 °C 30.00 in /  1015.8 hPa SSW 1.2 mph /  1.9 km/h 2.3 mph /  3.7 km/h 89 % 0.00 in /  0 mm
02:00 75.5 °F /  24.2 °C 72.0 °F /  22.2 °C 30.00 in /  1015.8 hPa WSW 1.6 mph /  2.6 km/h 3.5 mph /  5.6 km/h 89 % 0.00 in /  0 mm
02:05 75.5 °F /  24.2 °C 72.0 °F /  22.2 °C 30.00 in /  1015.8 hPa SW 0.8 mph /  1.3 km/h 4.6 mph /  7.4 km/h 89 % 0.00 in /  0 mm
02:10 75.5 °F /  24.2 °C 72.0 °F /  22.2 °C 30.00 in /  1015.8 hPa SW 0.3 mph /  0.5 km/h 1.2 mph /  1.9 km/h 89 % 0.00 in /  0 mm
02:15 75.5 °F /  24.2 °C 72.0 °F /  22.2 °C 30.00 in /  1015.8 hPa SW 0.1 mph /  0.2 km/h 3.5 mph /  5.6 km/h 89 % 0.00 in /  0 mm
02:20 75.4 °F /  24.1 °C 71.9 °F /  22.2 °C 30.00 in /  1015.8 hPa WSW 0.3 mph /  0.5 km/h 4.0 mph /  6.4 km/h 89 % 0.00 in /  0 mm
02:25 75.4 °F /  24.1 °C 71.9 °F /  22.2 °C 30.00 in /  1015.8 hPa WSW 1.4 mph /  2.3 km/h 3.0 mph /  4.8 km/h 89 % 0.00 in /  0 mm
02:30 75.4 °F /  24.1 °C 71.9 °F /  22.2 °C 30.00 in /  1015.8 hPa SW 2.0 mph /  3.2 km/h 3.5 mph /  5.6 km/h 89 % 0.00 in /  0 mm
02:35 75.4 °F /  24.1 °C 71.9 °F /  22.2 °C 30.00 in /  1015.8 hPa SW 1.0 mph /  1.6 km/h 4.6 mph /  7.4 km/h 89 % 0.00 in /  0 mm
02:40 75.4 °F /  24.1 °C 71.9 °F /  22.2 °C 30.00 in /  1015.8 hPa WSW 0.3 mph /  0.5 km/h 3.5 mph /  5.6 km/h 89 % 0.00 in /  0 mm
02:45 75.4 °F /  24.1 °C 71.9 °F /  22.2 °C 30.00 in /  1015.8 hPa South 0.7 mph /  1.1 km/h 3.5 mph /  5.6 km/h 89 % 0.00 in /  0 mm
02:51 75.4 °F /  24.1 °C 71.9 °F /  22.2 °C 30.00 in /  1015.8 hPa South 0.2 mph /  0.3 km/h 2.3 mph /  3.7 km/h 89 % 0.00 in /  0 mm
02:55 75.4 °F /  24.1 °C 71.9 °F /  22.2 °C 30.00 in /  1015.8 hPa Calm   1.0 mph /  1.6 km/h 89 % 0.00 in /  0 mm
03:01 75.4 °F /  24.1 °C 71.9 °F /  22.2 °C 30.00 in /  1015.8 hPa South 0.3 mph /  0.5 km/h 1.2 mph /  1.9 km/h 89 % 0.00 in /  0 mm
03:06 75.3 °F /  24.1 °C 71.8 °F /  22.1 °C 30.00 in /  1015.8 hPa WSW 0.1 mph /  0.2 km/h 1.2 mph /  1.9 km/h 89 % 0.00 in /  0 mm
03:11 75.3 °F /  24.1 °C 71.8 °F /  22.1 °C 30.00 in /  1015.8 hPa WSW 0.3 mph /  0.5 km/h 1.2 mph /  1.9 km/h 89 % 0.00 in /  0 mm
03:16 75.3 °F /  24.1 °C 71.8 °F /  22.1 °C 30.00 in /  1015.8 hPa Calm   1.2 mph /  1.9 km/h 89 % 0.00 in /  0 mm
03:21 75.2 °F /  24 °C 71.7 °F /  22.1 °C 30.00 in /  1015.8 hPa SW 0.4 mph /  0.6 km/h 2.0 mph /  3.2 km/h 89 % 0.00 in /  0 mm
03:26 75.2 °F /  24 °C 72.1 °F /  22.3 °C 29.99 in /  1015.5 hPa SW 0.7 mph /  1.1 km/h 2.3 mph /  3.7 km/h 90 % 0.00 in /  0 mm
03:31 75.2 °F /  24 °C 72.1 °F /  22.3 °C 29.99 in /  1015.5 hPa SW 0.7 mph /  1.1 km/h 2.3 mph /  3.7 km/h 90 % 0.00 in /  0 mm
03:36 75.1 °F /  23.9 °C 72.0 °F /  22.2 °C 29.99 in /  1015.5 hPa WSW 1.3 mph /  2.1 km/h 4.6 mph /  7.4 km/h 90 % 0.00 in /  0 mm
03:41 75.1 °F /  23.9 °C 72.0 °F /  22.2 °C 29.99 in /  1015.5 hPa SSW 0.1 mph /  0.2 km/h 1.2 mph /  1.9 km/h 90 % 0.00 in /  0 mm
03:46 75.1 °F /  23.9 °C 72.0 °F /  22.2 °C 29.99 in /  1015.5 hPa Calm   2.3 mph /  3.7 km/h 90 % 0.00 in /  0 mm
03:51 75.0 °F /  23.9 °C 71.9 °F /  22.2 °C 29.99 in /  1015.5 hPa WSW 0.1 mph /  0.2 km/h 1.2 mph /  1.9 km/h 90 % 0.00 in /  0 mm
03:56 75.0 °F /  23.9 °C 71.9 °F /  22.2 °C 29.99 in /  1015.5 hPa WSW 1.3 mph /  2.1 km/h 1.3 mph /  2.1 km/h 90 % 0.00 in /  0 mm
04:01 75.0 °F /  23.9 °C 71.9 °F /  22.2 °C 29.99 in /  1015.5 hPa Calm     90 % 0.00 in /  0 mm
04:06 74.9 °F /  23.8 °C 71.8 °F /  22.1 °C 29.99 in /  1015.5 hPa Calm   1.2 mph /  1.9 km/h 90 % 0.00 in /  0 mm
04:11 74.9 °F /  23.8 °C 72.1 °F /  22.3 °C 29.98 in /  1015.1 hPa Calm   1.2 mph /  1.9 km/h 91 % 0.00 in /  0 mm
04:16 74.9 °F /  23.8 °C 72.1 °F /  22.3 °C 29.99 in /  1015.5 hPa West 0.1 mph /  0.2 km/h 5.8 mph /  9.3 km/h 91 % 0.00 in /  0 mm
04:21 74.8 °F /  23.8 °C 72.0 °F /  22.2 °C 29.99 in /  1015.5 hPa Calm   1.2 mph /  1.9 km/h 91 % 0.00 in /  0 mm
04:26 74.8 °F /  23.8 °C 72.0 °F /  22.2 °C 29.99 in /  1015.5 hPa West 0.1 mph /  0.2 km/h 1.2 mph /  1.9 km/h 91 % 0.00 in /  0 mm
04:32 74.7 °F /  23.7 °C 71.9 °F /  22.2 °C 29.99 in /  1015.5 hPa West 0.6 mph /  1 km/h 1.2 mph /  1.9 km/h 91 % 0.00 in /  0 mm
04:37 74.7 °F /  23.7 °C 71.9 °F /  22.2 °C 29.99 in /  1015.5 hPa West 0.2 mph /  0.3 km/h 1.2 mph /  1.9 km/h 91 % 0.00 in /  0 mm
04:42 74.6 °F /  23.7 °C 71.8 °F /  22.1 °C 29.99 in /  1015.5 hPa Calm   2.3 mph /  3.7 km/h 91 % 0.00 in /  0 mm
04:47 74.5 °F /  23.6 °C 71.7 °F /  22.1 °C 29.99 in /  1015.5 hPa Calm     91 % 0.00 in /  0 mm
04:52 74.5 °F /  23.6 °C 71.7 °F /  22.1 °C 29.99 in /  1015.5 hPa West 0.2 mph /  0.3 km/h 2.0 mph /  3.2 km/h 91 % 0.00 in /  0 mm
04:57 74.4 °F /  23.6 °C 71.6 °F /  22 °C 29.99 in /  1015.5 hPa West 0.4 mph /  0.6 km/h 2.0 mph /  3.2 km/h 91 % 0.00 in /  0 mm
05:02 74.4 °F /  23.6 °C 71.6 °F /  22 °C 29.99 in /  1015.5 hPa West 0.1 mph /  0.2 km/h 1.2 mph /  1.9 km/h 91 % 0.00 in /  0 mm
05:07 74.4 °F /  23.6 °C 71.9 °F /  22.2 °C 29.99 in /  1015.5 hPa Calm     92 % 0.00 in /  0 mm
05:12 74.3 °F /  23.5 °C 71.8 °F /  22.1 °C 29.99 in /  1015.5 hPa Calm   1.2 mph /  1.9 km/h 92 % 0.00 in /  0 mm
05:17 74.3 °F /  23.5 °C 71.8 °F /  22.1 °C 29.99 in /  1015.5 hPa Calm     92 % 0.00 in /  0 mm
05:22 74.2 °F /  23.4 °C 71.7 °F /  22.1 °C 29.99 in /  1015.5 hPa Calm     92 % 0.00 in /  0 mm
05:27 74.2 °F /  23.4 °C 71.7 °F /  22.1 °C 29.99 in /  1015.5 hPa Calm     92 % 0.00 in /  0 mm
05:32 74.1 °F /  23.4 °C 71.6 °F /  22 °C 29.99 in /  1015.5 hPa Calm   1.2 mph /  1.9 km/h 92 % 0.00 in /  0 mm
05:37 74.1 °F /  23.4 °C 71.6 °F /  22 °C 29.99 in /  1015.5 hPa Calm   1.2 mph /  1.9 km/h 92 % 0.00 in /  0 mm
05:42 74.0 °F /  23.3 °C 71.5 °F /  21.9 °C 29.99 in /  1015.5 hPa Calm     92 % 0.00 in /  0 mm
05:47 74.0 °F /  23.3 °C 71.5 °F /  21.9 °C 29.99 in /  1015.5 hPa Calm     92 % 0.00 in /  0 mm
05:52 74.0 °F /  23.3 °C 71.5 °F /  21.9 °C 29.99 in /  1015.5 hPa Calm     92 % 0.00 in /  0 mm
05:57 73.9 °F /  23.3 °C 71.4 °F /  21.9 °C 29.99 in /  1015.5 hPa Calm     92 % 0.00 in /  0 mm
06:02 73.9 °F /  23.3 °C 71.4 °F /  21.9 °C 29.99 in /  1015.5 hPa Calm     92 % 0.00 in /  0 mm
06:07 73.9 °F /  23.3 °C 71.7 °F /  22.1 °C 29.99 in /  1015.5 hPa Calm     93 % 0.00 in /  0 mm
06:12 73.9 °F /  23.3 °C 71.7 °F /  22.1 °C 29.99 in /  1015.5 hPa Calm     93 % 0.00 in /  0 mm
06:17 73.9 °F /  23.3 °C 71.7 °F /  22.1 °C 29.99 in /  1015.5 hPa Calm     93 % 0.00 in /  0 mm
06:23 73.9 °F /  23.3 °C 71.7 °F /  22.1 °C 29.99 in /  1015.5 hPa Calm     93 % 0.00 in /  0 mm
06:28 74.0 °F /  23.3 °C 71.8 °F /  22.1 °C 29.99 in /  1015.5 hPa West 0.1 mph /  0.2 km/h 1.2 mph /  1.9 km/h 93 % 0.00 in /  0 mm
06:33 74.0 °F /  23.3 °C 71.8 °F /  22.1 °C 29.99 in /  1015.5 hPa West 0.4 mph /  0.6 km/h 2.3 mph /  3.7 km/h 93 % 0.00 in /  0 mm
06:38 74.2 °F /  23.4 °C 72.4 °F /  22.4 °C 29.99 in /  1015.5 hPa West 0.1 mph /  0.2 km/h 1.2 mph /  1.9 km/h 94 % 0.00 in /  0 mm
06:43 74.3 °F /  23.5 °C 72.5 °F /  22.5 °C 29.99 in /  1015.5 hPa Calm   1.2 mph /  1.9 km/h 94 % 0.00 in /  0 mm
06:48 74.5 °F /  23.6 °C 72.7 °F /  22.6 °C 29.99 in /  1015.5 hPa Calm     94 % 0.00 in /  0 mm
06:53 74.7 °F /  23.7 °C 72.9 °F /  22.7 °C 29.99 in /  1015.5 hPa West 0.8 mph /  1.3 km/h 3.5 mph /  5.6 km/h 94 % 0.00 in /  0 mm
06:58 74.9 °F /  23.8 °C 73.1 °F /  22.8 °C 29.99 in /  1015.5 hPa West 1.0 mph /  1.6 km/h 2.3 mph /  3.7 km/h 94 % 0.00 in /  0 mm
07:03 75.2 °F /  24 °C 73.4 °F /  23 °C 30.00 in /  1015.8 hPa WSW 3.1 mph /  5 km/h 3.5 mph /  5.6 km/h 94 % 0.00 in /  0 mm
07:08 75.4 °F /  24.1 °C 73.6 °F /  23.1 °C 30.00 in /  1015.8 hPa WSW 0.4 mph /  0.6 km/h 1.2 mph /  1.9 km/h 94 % 0.00 in /  0 mm
07:13 75.8 °F /  24.3 °C 73.9 °F /  23.3 °C 30.00 in /  1015.8 hPa SSW 1.6 mph /  2.6 km/h 3.5 mph /  5.6 km/h 94 % 0.00 in /  0 mm
07:17 76.0 °F /  24.4 °C 73.8 °F /  23.2 °C 30.00 in /  1015.8 hPa SW 0.4 mph /  0.6 km/h 3.5 mph /  5.6 km/h 93 % 0.00 in /  0 mm
07:22 76.4 °F /  24.7 °C 74.2 °F /  23.4 °C 30.00 in /  1015.8 hPa SW 0.5 mph /  0.8 km/h 4.0 mph /  6.4 km/h 93 % 0.00 in /  0 mm
07:27 76.8 °F /  24.9 °C 74.6 °F /  23.7 °C 30.00 in /  1015.8 hPa Calm   2.3 mph /  3.7 km/h 93 % 0.00 in /  0 mm
07:32 77.2 °F /  25.1 °C 74.7 °F /  23.7 °C 30.00 in /  1015.8 hPa Calm     92 % 0.00 in /  0 mm
07:37 77.5 °F /  25.3 °C 74.7 °F /  23.7 °C 30.00 in /  1015.8 hPa SW 0.3 mph /  0.5 km/h 1.2 mph /  1.9 km/h 91 % 0.00 in /  0 mm
07:42 77.8 °F /  25.4 °C 75.0 °F /  23.9 °C 30.00 in /  1015.8 hPa SW 0.8 mph /  1.3 km/h 2.3 mph /  3.7 km/h 91 % 0.00 in /  0 mm
07:47 78.1 °F /  25.6 °C 74.9 °F /  23.8 °C 30.01 in /  1016.1 hPa SW 0.8 mph /  1.3 km/h 2.3 mph /  3.7 km/h 90 % 0.00 in /  0 mm
07:52 78.3 °F /  25.7 °C 74.8 °F /  23.8 °C 30.00 in /  1015.8 hPa SW 1.3 mph /  2.1 km/h 4.0 mph /  6.4 km/h 89 % 0.00 in /  0 mm
07:57 78.5 °F /  25.8 °C 75.0 °F /  23.9 °C 30.00 in /  1015.8 hPa SW 0.2 mph /  0.3 km/h 2.3 mph /  3.7 km/h 89 % 0.00 in /  0 mm
08:02 78.6 °F /  25.9 °C 75.1 °F /  23.9 °C 30.00 in /  1015.8 hPa SW 1.1 mph /  1.8 km/h 3.5 mph /  5.6 km/h 89 % 0.00 in /  0 mm
08:07 78.7 °F /  25.9 °C 74.8 °F /  23.8 °C 30.00 in /  1015.8 hPa SW 0.2 mph /  0.3 km/h 1.2 mph /  1.9 km/h 88 % 0.00 in /  0 mm
08:12 78.8 °F /  26 °C 74.9 °F /  23.8 °C 30.00 in /  1015.8 hPa WSW 3.2 mph /  5.1 km/h 5.8 mph /  9.3 km/h 88 % 0.00 in /  0 mm
08:17 78.9 °F /  26.1 °C 75.0 °F /  23.9 °C 30.00 in /  1015.8 hPa SSW 2.0 mph /  3.2 km/h 3.0 mph /  4.8 km/h 88 % 0.00 in /  0 mm
08:22 79.0 °F /  26.1 °C 75.1 °F /  23.9 °C 30.00 in /  1015.8 hPa WSW 0.6 mph /  1 km/h 6.9 mph /  11.1 km/h 88 % 0.00 in /  0 mm
08:27 79.1 °F /  26.2 °C 75.2 °F /  24 °C 30.00 in /  1015.8 hPa SW 2.7 mph /  4.3 km/h 3.5 mph /  5.6 km/h 88 % 0.00 in /  0 mm
08:32 79.3 °F /  26.3 °C 75.4 °F /  24.1 °C 30.00 in /  1015.8 hPa SW 1.9 mph /  3.1 km/h 3.5 mph /  5.6 km/h 88 % 0.00 in /  0 mm
08:37 79.4 °F /  26.3 °C 75.5 °F /  24.2 °C 30.00 in /  1015.8 hPa SW 1.1 mph /  1.8 km/h 3.5 mph /  5.6 km/h 88 % 0.00 in /  0 mm
08:42 79.6 °F /  26.4 °C 75.4 °F /  24.1 °C 30.00 in /  1015.8 hPa WSW 3.1 mph /  5 km/h 5.8 mph /  9.3 km/h 87 % 0.00 in /  0 mm
08:47 79.7 °F /  26.5 °C 75.5 °F /  24.2 °C 30.00 in /  1015.8 hPa West 1.2 mph /  1.9 km/h 3.0 mph /  4.8 km/h 87 % 0.00 in /  0 mm
08:52 79.9 °F /  26.6 °C 76.0 °F /  24.4 °C 30.00 in /  1015.8 hPa WSW 0.8 mph /  1.3 km/h 2.3 mph /  3.7 km/h 88 % 0.00 in /  0 mm
08:58 80.0 °F /  26.7 °C 75.8 °F /  24.3 °C 30.00 in /  1015.8 hPa SSW 4.5 mph /  7.2 km/h 6.0 mph /  9.7 km/h 87 % 0.00 in /  0 mm
09:03 80.2 °F /  26.8 °C 75.6 °F /  24.2 °C 30.00 in /  1015.8 hPa WNW 3.0 mph /  4.8 km/h 5.8 mph /  9.3 km/h 86 % 0.00 in /  0 mm
09:08 80.5 °F /  26.9 °C 75.9 °F /  24.4 °C 30.00 in /  1015.8 hPa West 2.3 mph /  3.7 km/h 4.6 mph /  7.4 km/h 86 % 0.00 in /  0 mm
09:13 80.7 °F /  27.1 °C 76.1 °F /  24.5 °C 30.00 in /  1015.8 hPa SSW 0.8 mph /  1.3 km/h 3.0 mph /  4.8 km/h 86 % 0.00 in /  0 mm
09:18 80.9 °F /  27.2 °C 76.3 °F /  24.6 °C 29.99 in /  1015.5 hPa WNW 0.4 mph /  0.6 km/h 3.0 mph /  4.8 km/h 86 % 0.00 in /  0 mm
09:23 81.2 °F /  27.3 °C 76.6 °F /  24.8 °C 29.99 in /  1015.5 hPa West 0.9 mph /  1.4 km/h 3.5 mph /  5.6 km/h 86 % 0.00 in /  0 mm
09:28 81.4 °F /  27.4 °C 76.1 °F /  24.5 °C 29.99 in /  1015.5 hPa SW 3.5 mph /  5.6 km/h 5.8 mph /  9.3 km/h 84 % 0.00 in /  0 mm
09:33 81.6 °F /  27.6 °C 75.9 °F /  24.4 °C 29.99 in /  1015.5 hPa SW 0.9 mph /  1.4 km/h 3.5 mph /  5.6 km/h 83 % 0.00 in /  0 mm
09:38 81.9 °F /  27.7 °C 75.9 °F /  24.4 °C 29.99 in /  1015.5 hPa WSW 2.1 mph /  3.4 km/h 5.0 mph /  8 km/h 82 % 0.00 in /  0 mm
09:43 82.2 °F /  27.9 °C 76.2 °F /  24.6 °C 29.99 in /  1015.5 hPa WSW 1.5 mph /  2.4 km/h 3.5 mph /  5.6 km/h 82 % 0.00 in /  0 mm
09:48 82.6 °F /  28.1 °C 76.5 °F /  24.7 °C 29.99 in /  1015.5 hPa SW 1.4 mph /  2.3 km/h 3.5 mph /  5.6 km/h 82 % 0.00 in /  0 mm
09:53 83.0 °F /  28.3 °C 76.2 °F /  24.6 °C 29.98 in /  1015.1 hPa WNW 0.4 mph /  0.6 km/h 1.2 mph /  1.9 km/h 80 % 0.00 in /  0 mm
09:58 83.6 °F /  28.7 °C 76.4 °F /  24.7 °C 29.98 in /  1015.1 hPa West 0.5 mph /  0.8 km/h 3.5 mph /  5.6 km/h 79 % 0.00 in /  0 mm
10:03 84.3 °F /  29.1 °C 77.5 °F /  25.3 °C 29.98 in /  1015.1 hPa WNW 1.5 mph /  2.4 km/h 3.0 mph /  4.8 km/h 80 % 0.00 in /  0 mm
10:08 84.9 °F /  29.4 °C 78.0 °F /  25.6 °C 29.99 in /  1015.5 hPa WSW 3.7 mph /  6 km/h 5.0 mph /  8 km/h 80 % 0.00 in /  0 mm
10:13 85.7 °F /  29.8 °C 77.3 °F /  25.2 °C 29.99 in /  1015.5 hPa WSW 1.9 mph /  3.1 km/h 4.6 mph /  7.4 km/h 76 % 0.00 in /  0 mm
10:18 86.4 °F /  30.2 °C 77.9 °F /  25.5 °C 29.99 in /  1015.5 hPa SW 2.7 mph /  4.3 km/h 4.0 mph /  6.4 km/h 76 % 0.00 in /  0 mm
10:23 86.9 °F /  30.5 °C 77.2 °F /  25.1 °C 29.98 in /  1015.1 hPa WSW 2.4 mph /  3.9 km/h 4.6 mph /  7.4 km/h 73 % 0.00 in /  0 mm
10:24 87.0 °F /  30.6 °C 77.7 °F /  25.4 °C 29.99 in /  1015.5 hPa WSW 1.0 mph /  1.6 km/h 3.5 mph /  5.6 km/h 74 % 0.00 in /  0 mm
10:29 87.5 °F /  30.8 °C 77.8 °F /  25.4 °C 29.99 in /  1015.5 hPa North 1.6 mph /  2.6 km/h 3.5 mph /  5.6 km/h 73 % 0.00 in /  0 mm
10:34 88.2 °F /  31.2 °C 78.4 °F /  25.8 °C 29.99 in /  1015.5 hPa North 1.1 mph /  1.8 km/h 2.3 mph /  3.7 km/h 73 % 0.00 in /  0 mm
10:39 88.8 °F /  31.6 °C 78.6 °F /  25.9 °C 29.99 in /  1015.5 hPa North 1.3 mph /  2.1 km/h 3.5 mph /  5.6 km/h 72 % 0.00 in /  0 mm
10:44 89.4 °F /  31.9 °C 79.2 °F /  26.2 °C 29.99 in /  1015.5 hPa NW 2.0 mph /  3.2 km/h 3.5 mph /  5.6 km/h 72 % 0.00 in /  0 mm
10:49 89.9 °F /  32.2 °C 79.2 °F /  26.2 °C 29.99 in /  1015.5 hPa NNW 2.1 mph /  3.4 km/h 2.3 mph /  3.7 km/h 71 % 0.00 in /  0 mm
10:54 90.4 °F /  32.4 °C 79.3 °F /  26.3 °C 29.98 in /  1015.1 hPa NNE 2.3 mph /  3.7 km/h 3.5 mph /  5.6 km/h 70 % 0.00 in /  0 mm
10:59 91.0 °F /  32.8 °C 79.4 °F /  26.3 °C 29.99 in /  1015.5 hPa NNE 1.7 mph /  2.7 km/h 3.5 mph /  5.6 km/h 69 % 0.00 in /  0 mm
11:04 91.4 °F /  33 °C 79.8 °F /  26.6 °C 29.98 in /  1015.1 hPa NNW 0.8 mph /  1.3 km/h 3.5 mph /  5.6 km/h 69 % 0.00 in /  0 mm
11:09 91.9 °F /  33.3 °C 79.4 °F /  26.3 °C 29.98 in /  1015.1 hPa NNW 0.2 mph /  0.3 km/h 2.0 mph /  3.2 km/h 67 % 0.00 in /  0 mm
11:14 92.3 °F /  33.5 °C 78.8 °F /  26 °C 29.98 in /  1015.1 hPa West 1.9 mph /  3.1 km/h 3.5 mph /  5.6 km/h 65 % 0.00 in /  0 mm
11:19 92.5 °F /  33.6 °C 78.1 °F /  25.6 °C 29.98 in /  1015.1 hPa SW 2.2 mph /  3.5 km/h 3.5 mph /  5.6 km/h 63 % 0.00 in /  0 mm
11:24 92.7 °F /  33.7 °C 78.7 °F /  25.9 °C 29.98 in /  1015.1 hPa SW 1.1 mph /  1.8 km/h 4.6 mph /  7.4 km/h 64 % 0.00 in /  0 mm
11:30 93.1 °F /  33.9 °C 79.6 °F /  26.4 °C 29.98 in /  1015.1 hPa West 0.1 mph /  0.2 km/h 1.2 mph /  1.9 km/h 65 % 0.00 in /  0 mm
11:35 93.6 °F /  34.2 °C 79.1 °F /  26.2 °C 29.98 in /  1015.1 hPa NW 1.6 mph /  2.6 km/h 4.0 mph /  6.4 km/h 63 % 0.00 in /  0 mm
11:40 94.0 °F /  34.4 °C 80.0 °F /  26.7 °C 29.98 in /  1015.1 hPa NW 0.4 mph /  0.6 km/h 2.3 mph /  3.7 km/h 64 % 0.00 in /  0 mm
11:45 94.2 °F /  34.6 °C 79.7 °F /  26.5 °C 29.98 in /  1015.1 hPa NNE 1.4 mph /  2.3 km/h 3.5 mph /  5.6 km/h 63 % 0.00 in /  0 mm
11:50 94.6 °F /  34.8 °C 80.0 °F /  26.7 °C 29.97 in /  1014.8 hPa Calm   1.2 mph /  1.9 km/h 63 % 0.00 in /  0 mm
11:55 94.9 °F /  34.9 °C 77.8 °F /  25.4 °C 29.97 in /  1014.8 hPa WSW 2.5 mph /  4 km/h 6.0 mph /  9.7 km/h 58 % 0.00 in /  0 mm
12:00 95.1 °F /  35.1 °C 78.0 °F /  25.6 °C 29.98 in /  1015.1 hPa WNW 1.7 mph /  2.7 km/h 4.6 mph /  7.4 km/h 58 % 0.00 in /  0 mm
12:05 95.3 °F /  35.2 °C 77.7 °F /  25.4 °C 29.97 in /  1014.8 hPa West 2.2 mph /  3.5 km/h 3.5 mph /  5.6 km/h 57 % 0.00 in /  0 mm
12:10 95.5 °F /  35.3 °C 78.4 °F /  25.8 °C 29.97 in /  1014.8 hPa West 0.1 mph /  0.2 km/h 3.5 mph /  5.6 km/h 58 % 0.00 in /  0 mm
12:16 95.6 °F /  35.3 °C 76.9 °F /  24.9 °C 29.97 in /  1014.8 hPa WNW 2.0 mph /  3.2 km/h 7.0 mph /  11.3 km/h 55 % 0.00 in /  0 mm
12:21 95.6 °F /  35.3 °C 75.7 °F /  24.3 °C 29.96 in /  1014.4 hPa Calm   6.0 mph /  9.7 km/h 53 % 0.00 in /  0 mm
12:26 95.7 °F /  35.4 °C 75.8 °F /  24.3 °C 29.97 in /  1014.8 hPa West 1.0 mph /  1.6 km/h 5.0 mph /  8 km/h 53 % 0.00 in /  0 mm
12:31 95.6 °F /  35.3 °C 73.9 °F /  23.3 °C 29.96 in /  1014.4 hPa WSW 3.0 mph /  4.8 km/h 7.0 mph /  11.3 km/h 50 % 0.00 in /  0 mm
12:36 95.4 °F /  35.2 °C 73.2 °F /  22.9 °C 29.96 in /  1014.4 hPa WSW 5.0 mph /  8 km/h 7.0 mph /  11.3 km/h 49 % 0.00 in /  0 mm
12:41 95.2 °F /  35.1 °C 73.6 °F /  23.1 °C 29.96 in /  1014.4 hPa West 1.0 mph /  1.6 km/h 6.9 mph /  11.1 km/h 50 % 0.00 in /  0 mm
12:46 95.2 °F /  35.1 °C 74.2 °F /  23.4 °C 29.96 in /  1014.4 hPa West 1.9 mph /  3.1 km/h 3.5 mph /  5.6 km/h 51 % 0.00 in /  0 mm
12:51 95.3 °F /  35.2 °C 74.3 °F /  23.5 °C 29.95 in /  1014.1 hPa WSW 2.3 mph /  3.7 km/h 5.8 mph /  9.3 km/h 51 % 0.00 in /  0 mm
12:56 95.3 °F /  35.2 °C 74.9 °F /  23.8 °C 29.95 in /  1014.1 hPa WSW 6.0 mph /  9.7 km/h 8.0 mph /  12.9 km/h 52 % 0.00 in /  0 mm
13:01 95.4 °F /  35.2 °C 75.6 °F /  24.2 °C 29.95 in /  1014.1 hPa SW 2.0 mph /  3.2 km/h 4.6 mph /  7.4 km/h 53 % 0.00 in /  0 mm
13:06 95.4 °F /  35.2 °C 75.6 °F /  24.2 °C 29.95 in /  1014.1 hPa West 2.8 mph /  4.5 km/h 4.6 mph /  7.4 km/h 53 % 0.00 in /  0 mm
13:11 95.4 °F /  35.2 °C 73.8 °F /  23.2 °C 29.95 in /  1014.1 hPa SW 5.1 mph /  8.2 km/h 6.9 mph /  11.1 km/h 50 % 0.00 in /  0 mm
13:16 95.4 °F /  35.2 °C 73.8 °F /  23.2 °C 29.94 in /  1013.8 hPa West 0.5 mph /  0.8 km/h 3.5 mph /  5.6 km/h 50 % 0.00 in /  0 mm
13:21 95.5 °F /  35.3 °C 71.4 °F /  21.9 °C 29.94 in /  1013.8 hPa SW 4.2 mph /  6.8 km/h 6.0 mph /  9.7 km/h 46 % 0.00 in /  0 mm
13:26 95.7 °F /  35.4 °C 72.2 °F /  22.3 °C 29.94 in /  1013.8 hPa SSW 3.7 mph /  6 km/h 6.9 mph /  11.1 km/h 47 % 0.00 in /  0 mm
13:31 95.8 °F /  35.4 °C 71.7 °F /  22.1 °C 29.94 in /  1013.8 hPa WSW 3.4 mph /  5.5 km/h 5.8 mph /  9.3 km/h 46 % 0.00 in /  0 mm
13:36 96.0 °F /  35.6 °C 71.2 °F /  21.8 °C 29.94 in /  1013.8 hPa West 2.8 mph /  4.5 km/h 9.2 mph /  14.8 km/h 45 % 0.00 in /  0 mm
13:41 96.1 °F /  35.6 °C 71.3 °F /  21.8 °C 29.94 in /  1013.8 hPa West 2.1 mph /  3.4 km/h 10.4 mph /  16.7 km/h 45 % 0.00 in /  0 mm
13:46 96.2 °F /  35.7 °C 70.7 °F /  21.5 °C 29.93 in /  1013.4 hPa SSW 3.7 mph /  6 km/h 6.0 mph /  9.7 km/h 44 % 0.00 in /  0 mm
13:51 96.3 °F /  35.7 °C 68.8 °F /  20.4 °C 29.93 in /  1013.4 hPa SW 8.2 mph /  13.2 km/h 12.7 mph /  20.4 km/h 41 % 0.00 in /  0 mm
13:56 96.3 °F /  35.7 °C 69.5 °F /  20.8 °C 29.93 in /  1013.4 hPa SW 3.6 mph /  5.8 km/h 6.0 mph /  9.7 km/h 42 % 0.00 in /  0 mm
14:01 96.4 °F /  35.8 °C 68.9 °F /  20.5 °C 29.93 in /  1013.4 hPa West 2.0 mph /  3.2 km/h 4.6 mph /  7.4 km/h 41 % 0.00 in /  0 mm
14:06 96.6 °F /  35.9 °C 67.6 °F /  19.8 °C 29.93 in /  1013.4 hPa WSW 5.2 mph /  8.4 km/h 8.0 mph /  12.9 km/h 39 % 0.00 in /  0 mm
14:11 96.6 °F /  35.9 °C 65.3 °F /  18.5 °C 29.93 in /  1013.4 hPa SW 2.3 mph /  3.7 km/h 6.9 mph /  11.1 km/h 36 % 0.00 in /  0 mm
14:16 96.6 °F /  35.9 °C 64.5 °F /  18.1 °C 29.93 in /  1013.4 hPa WSW 7.2 mph /  11.6 km/h 11.5 mph /  18.5 km/h 35 % 0.00 in /  0 mm
14:21 96.7 °F /  35.9 °C 65.4 °F /  18.6 °C 29.93 in /  1013.4 hPa WSW 5.8 mph /  9.3 km/h 9.0 mph /  14.5 km/h 36 % 0.00 in /  0 mm
14:26 96.7 °F /  35.9 °C 66.1 °F /  18.9 °C 29.93 in /  1013.4 hPa West 3.8 mph /  6.1 km/h 9.0 mph /  14.5 km/h 37 % 0.00 in /  0 mm
14:31 96.8 °F /  36 °C 67.0 °F /  19.4 °C 29.93 in /  1013.4 hPa WSW 3.7 mph /  6 km/h 5.8 mph /  9.3 km/h 38 % 0.00 in /  0 mm
14:36 96.9 °F /  36.1 °C 66.3 °F /  19.1 °C 29.93 in /  1013.4 hPa SSW 2.4 mph /  3.9 km/h 4.6 mph /  7.4 km/h 37 % 0.00 in /  0 mm
14:41 97.0 °F /  36.1 °C 67.9 °F /  19.9 °C 29.93 in /  1013.4 hPa WNW 2.0 mph /  3.2 km/h 4.0 mph /  6.4 km/h 39 % 0.00 in /  0 mm
14:46 97.1 °F /  36.2 °C 66.5 °F /  19.2 °C 29.93 in /  1013.4 hPa West 2.7 mph /  4.3 km/h 3.5 mph /  5.6 km/h 37 % 0.00 in /  0 mm
14:51 97.1 °F /  36.2 °C 66.5 °F /  19.2 °C 29.93 in /  1013.4 hPa WNW 3.4 mph /  5.5 km/h 6.0 mph /  9.7 km/h 37 % 0.00 in /  0 mm
14:56 97.2 °F /  36.2 °C 67.4 °F /  19.7 °C 29.93 in /  1013.4 hPa WSW 2.7 mph /  4.3 km/h 6.9 mph /  11.1 km/h 38 % 0.00 in /  0 mm
15:02 97.2 °F /  36.2 °C 68.1 °F /  20.1 °C 29.93 in /  1013.4 hPa WSW 4.4 mph /  7.1 km/h 4.4 mph /  7.1 km/h 39 % 0.00 in /  0 mm
15:07 97.3 °F /  36.3 °C 69.7 °F /  20.9 °C 29.93 in /  1013.4 hPa NW 0.7 mph /  1.1 km/h 5.0 mph /  8 km/h 41 % 0.00 in /  0 mm
15:12 97.2 °F /  36.2 °C 68.1 °F /  20.1 °C 29.93 in /  1013.4 hPa NW 1.1 mph /  1.8 km/h 6.9 mph /  11.1 km/h 39 % 0.00 in /  0 mm
15:17 97.2 °F /  36.2 °C 68.1 °F /  20.1 °C 29.93 in /  1013.4 hPa West 2.4 mph /  3.9 km/h 9.2 mph /  14.8 km/h 39 % 0.00 in /  0 mm
15:22 97.1 °F /  36.2 °C 68.0 °F /  20 °C 29.92 in /  1013.1 hPa NW 2.5 mph /  4 km/h 6.9 mph /  11.1 km/h 39 % 0.00 in /  0 mm
15:27 96.9 °F /  36.1 °C 67.8 °F /  19.9 °C 29.92 in /  1013.1 hPa North 3.4 mph /  5.5 km/h 5.8 mph /  9.3 km/h 39 % 0.00 in /  0 mm
15:32 96.8 °F /  36 °C 68.5 °F /  20.3 °C 29.92 in /  1013.1 hPa WNW 3.3 mph /  5.3 km/h 5.8 mph /  9.3 km/h 40 % 0.00 in /  0 mm
15:37 96.6 °F /  35.9 °C 70.4 °F /  21.3 °C 29.92 in /  1013.1 hPa West 1.6 mph /  2.6 km/h 6.0 mph /  9.7 km/h 43 % 0.00 in /  0 mm
15:39 96.5 °F /  35.8 °C 68.2 °F /  20.1 °C 29.92 in /  1013.1 hPa SSW 7.4 mph /  11.9 km/h 11.5 mph /  18.5 km/h 40 % 0.00 in /  0 mm
15:44 96.4 °F /  35.8 °C 68.9 °F /  20.5 °C 29.92 in /  1013.1 hPa West 5.7 mph /  9.2 km/h 9.0 mph /  14.5 km/h 41 % 0.00 in /  0 mm
15:49 96.4 °F /  35.8 °C 70.3 °F /  21.3 °C 29.92 in /  1013.1 hPa WNW 3.1 mph /  5 km/h 6.0 mph /  9.7 km/h 43 % 0.00 in /  0 mm
15:54 96.3 °F /  35.7 °C 69.5 °F /  20.8 °C 29.92 in /  1013.1 hPa WNW 0.8 mph /  1.3 km/h 3.5 mph /  5.6 km/h 42 % 0.00 in /  0 mm
15:59 96.4 °F /  35.8 °C 68.1 °F /  20.1 °C 29.91 in /  1012.8 hPa WNW 4.7 mph /  7.6 km/h 8.1 mph /  13 km/h 40 % 0.00 in /  0 mm
16:04 96.4 °F /  35.8 °C 70.9 °F /  21.6 °C 29.91 in /  1012.8 hPa NW 3.0 mph /  4.8 km/h 5.8 mph /  9.3 km/h 44 % 0.00 in /  0 mm
16:09 96.3 °F /  35.7 °C 69.5 °F /  20.8 °C 29.91 in /  1012.8 hPa WNW 1.8 mph /  2.9 km/h 5.0 mph /  8 km/h 42 % 0.00 in /  0 mm
16:14 96.4 °F /  35.8 °C 69.6 °F /  20.9 °C 29.91 in /  1012.8 hPa NW 5.7 mph /  9.2 km/h 11.5 mph /  18.5 km/h 42 % 0.00 in /  0 mm
16:19 96.5 °F /  35.8 °C 70.3 °F /  21.3 °C 29.91 in /  1012.8 hPa WNW 1.4 mph /  2.3 km/h 5.8 mph /  9.3 km/h 43 % 0.00 in /  0 mm
16:24 96.5 °F /  35.8 °C 69.7 °F /  20.9 °C 29.91 in /  1012.8 hPa WNW 2.6 mph /  4.2 km/h 5.0 mph /  8 km/h 42 % 0.00 in /  0 mm
16:29 96.4 °F /  35.8 °C 69.6 °F /  20.9 °C 29.91 in /  1012.8 hPa NW 3.6 mph /  5.8 km/h 6.0 mph /  9.7 km/h 42 % 0.00 in /  0 mm
16:34 96.2 °F /  35.7 °C 68.7 °F /  20.4 °C 29.91 in /  1012.8 hPa SSW 1.6 mph /  2.6 km/h 4.6 mph /  7.4 km/h 41 % 0.00 in /  0 mm
16:39 96.3 °F /  35.7 °C 70.8 °F /  21.6 °C 29.90 in /  1012.4 hPa NNW 0.7 mph /  1.1 km/h 4.6 mph /  7.4 km/h 44 % 0.00 in /  0 mm
16:44 96.3 °F /  35.7 °C 69.5 °F /  20.8 °C 29.91 in /  1012.8 hPa SW 1.5 mph /  2.4 km/h 3.5 mph /  5.6 km/h 42 % 0.00 in /  0 mm
16:49 96.3 °F /  35.7 °C 70.8 °F /  21.6 °C 29.90 in /  1012.4 hPa SW 2.0 mph /  3.2 km/h 3.0 mph /  4.8 km/h 44 % 0.00 in /  0 mm
16:54 96.1 °F /  35.6 °C 70.0 °F /  21.1 °C 29.90 in /  1012.4 hPa SW 3.1 mph /  5 km/h 5.8 mph /  9.3 km/h 43 % 0.00 in /  0 mm
16:59 96.0 °F /  35.6 °C 69.9 °F /  21.1 °C 29.90 in /  1012.4 hPa WNW 3.4 mph /  5.5 km/h 5.0 mph /  8 km/h 43 % 0.00 in /  0 mm
17:05 95.8 °F /  35.4 °C 70.4 °F /  21.3 °C 29.90 in /  1012.4 hPa WSW 1.5 mph /  2.4 km/h 6.9 mph /  11.1 km/h 44 % 0.00 in /  0 mm
17:10 95.7 °F /  35.4 °C 69.6 °F /  20.9 °C 29.90 in /  1012.4 hPa West 0.1 mph /  0.2 km/h 2.3 mph /  3.7 km/h 43 % 0.00 in /  0 mm
17:15 95.5 °F /  35.3 °C 70.1 °F /  21.2 °C 29.90 in /  1012.4 hPa SSW 3.2 mph /  5.1 km/h 8.1 mph /  13 km/h 44 % 0.00 in /  0 mm
17:20 95.4 °F /  35.2 °C 69.4 °F /  20.8 °C 29.90 in /  1012.4 hPa WSW 1.0 mph /  1.6 km/h 3.5 mph /  5.6 km/h 43 % 0.00 in /  0 mm
17:25 95.1 °F /  35.1 °C 69.1 °F /  20.6 °C 29.90 in /  1012.4 hPa WSW 2.2 mph /  3.5 km/h 4.6 mph /  7.4 km/h 43 % 0.00 in /  0 mm
17:30 94.8 °F /  34.9 °C 68.8 °F /  20.4 °C 29.90 in /  1012.4 hPa WSW 2.4 mph /  3.9 km/h 5.8 mph /  9.3 km/h 43 % 0.00 in /  0 mm
17:35 94.6 °F /  34.8 °C 71.9 °F /  22.2 °C 29.90 in /  1012.4 hPa WSW 1.3 mph /  2.1 km/h 4.6 mph /  7.4 km/h 48 % 0.00 in /  0 mm
17:40 94.4 °F /  34.7 °C 74.1 °F /  23.4 °C 29.90 in /  1012.4 hPa West 2.7 mph /  4.3 km/h 5.0 mph /  8 km/h 52 % 0.00 in /  0 mm
17:45 94.1 °F /  34.5 °C 74.9 °F /  23.8 °C 29.90 in /  1012.4 hPa SSW 2.7 mph /  4.3 km/h 6.0 mph /  9.7 km/h 54 % 0.00 in /  0 mm
17:50 93.7 °F /  34.3 °C 74.5 °F /  23.6 °C 29.90 in /  1012.4 hPa West 2.7 mph /  4.3 km/h 6.9 mph /  11.1 km/h 54 % 0.00 in /  0 mm
17:55 93.3 °F /  34.1 °C 75.3 °F /  24.1 °C 29.90 in /  1012.4 hPa SSE 1.3 mph /  2.1 km/h 3.5 mph /  5.6 km/h 56 % 0.00 in /  0 mm
18:00 92.7 °F /  33.7 °C 74.7 °F /  23.7 °C 29.89 in /  1012.1 hPa SE 0.6 mph /  1 km/h 2.0 mph /  3.2 km/h 56 % 0.00 in /  0 mm
18:05 92.2 °F /  33.4 °C 74.8 °F /  23.8 °C 29.90 in /  1012.4 hPa SSW 0.4 mph /  0.6 km/h 3.5 mph /  5.6 km/h 57 % 0.00 in /  0 mm
18:10 91.8 °F /  33.2 °C 74.9 °F /  23.8 °C 29.90 in /  1012.4 hPa SSW 4.4 mph /  7.1 km/h 4.6 mph /  7.4 km/h 58 % 0.00 in /  0 mm
18:15 91.3 °F /  32.9 °C 75.0 °F /  23.9 °C 29.89 in /  1012.1 hPa South 2.1 mph /  3.4 km/h 3.5 mph /  5.6 km/h 59 % 0.00 in /  0 mm
18:20 90.8 °F /  32.7 °C 74.5 °F /  23.6 °C 29.89 in /  1012.1 hPa SSW 2.2 mph /  3.5 km/h 3.5 mph /  5.6 km/h 59 % 0.00 in /  0 mm
18:25 90.4 °F /  32.4 °C 74.6 °F /  23.7 °C 29.89 in /  1012.1 hPa SW 2.4 mph /  3.9 km/h 6.9 mph /  11.1 km/h 60 % 0.00 in /  0 mm
18:30 90.0 °F /  32.2 °C 74.7 °F /  23.7 °C 29.89 in /  1012.1 hPa SW 1.4 mph /  2.3 km/h 2.3 mph /  3.7 km/h 61 % 0.00 in /  0 mm
18:35 89.7 °F /  32.1 °C 74.9 °F /  23.8 °C 29.90 in /  1012.4 hPa SW 0.5 mph /  0.8 km/h 3.5 mph /  5.6 km/h 62 % 0.00 in /  0 mm
18:38 89.4 °F /  31.9 °C 74.7 °F /  23.7 °C 29.90 in /  1012.4 hPa SW 0.6 mph /  1 km/h 2.0 mph /  3.2 km/h 62 % 0.00 in /  0 mm
18:43 89.0 °F /  31.7 °C 74.3 °F /  23.5 °C 29.90 in /  1012.4 hPa South 0.5 mph /  0.8 km/h 2.3 mph /  3.7 km/h 62 % 0.00 in /  0 mm
18:48 88.6 °F /  31.4 °C 74.4 °F /  23.6 °C 29.90 in /  1012.4 hPa SSE 2.2 mph /  3.5 km/h 3.5 mph /  5.6 km/h 63 % 0.00 in /  0 mm
18:53 88.2 °F /  31.2 °C 74.0 °F /  23.3 °C 29.90 in /  1012.4 hPa South 4.4 mph /  7.1 km/h 8.1 mph /  13 km/h 63 % 0.00 in /  0 mm
18:58 87.8 °F /  31 °C 73.6 °F /  23.1 °C 29.90 in /  1012.4 hPa SW 1.4 mph /  2.3 km/h 4.6 mph /  7.4 km/h 63 % 0.00 in /  0 mm
19:03 87.5 °F /  30.8 °C 74.3 °F /  23.5 °C 29.90 in /  1012.4 hPa SSE 1.2 mph /  1.9 km/h 4.0 mph /  6.4 km/h 65 % 0.00 in /  0 mm
19:08 87.3 °F /  30.7 °C 73.6 °F /  23.1 °C 29.90 in /  1012.4 hPa SSW 0.6 mph /  1 km/h 3.5 mph /  5.6 km/h 64 % 0.00 in /  0 mm
19:13 87.0 °F /  30.6 °C 73.8 °F /  23.2 °C 29.90 in /  1012.4 hPa SW 1.0 mph /  1.6 km/h 4.0 mph /  6.4 km/h 65 % 0.00 in /  0 mm
19:18 86.7 °F /  30.4 °C 73.5 °F /  23.1 °C 29.90 in /  1012.4 hPa South 0.6 mph /  1 km/h 3.5 mph /  5.6 km/h 65 % 0.00 in /  0 mm
19:23 86.5 °F /  30.3 °C 73.3 °F /  22.9 °C 29.90 in /  1012.4 hPa South 0.3 mph /  0.5 km/h 2.3 mph /  3.7 km/h 65 % 0.00 in /  0 mm
19:28 86.3 °F /  30.2 °C 73.6 °F /  23.1 °C 29.90 in /  1012.4 hPa South 0.5 mph /  0.8 km/h 2.3 mph /  3.7 km/h 66 % 0.00 in /  0 mm
19:33 86.0 °F /  30 °C 73.8 °F /  23.2 °C 29.90 in /  1012.4 hPa SSE 0.8 mph /  1.3 km/h 1.2 mph /  1.9 km/h 67 % 0.00 in /  0 mm
19:38 85.6 °F /  29.8 °C 73.4 °F /  23 °C 29.90 in /  1012.4 hPa SE 0.8 mph /  1.3 km/h 3.5 mph /  5.6 km/h 67 % 0.00 in /  0 mm
19:43 85.3 °F /  29.6 °C 73.5 °F /  23.1 °C 29.90 in /  1012.4 hPa South 0.9 mph /  1.4 km/h 3.5 mph /  5.6 km/h 68 % 0.00 in /  0 mm
19:48 85.1 °F /  29.5 °C 73.8 °F /  23.2 °C 29.90 in /  1012.4 hPa West 0.2 mph /  0.3 km/h 2.3 mph /  3.7 km/h 69 % 0.00 in /  0 mm
19:53 84.8 °F /  29.3 °C 73.5 °F /  23.1 °C 29.90 in /  1012.4 hPa SW 1.2 mph /  1.9 km/h 3.5 mph /  5.6 km/h 69 % 0.00 in /  0 mm
19:58 84.6 °F /  29.2 °C 73.7 °F /  23.2 °C 29.90 in /  1012.4 hPa ESE 0.1 mph /  0.2 km/h 2.3 mph /  3.7 km/h 70 % 0.00 in /  0 mm
20:03 84.3 °F /  29.1 °C 73.4 °F /  23 °C 29.91 in /  1012.8 hPa SSW 0.6 mph /  1 km/h 3.0 mph /  4.8 km/h 70 % 0.00 in /  0 mm
20:09 84.0 °F /  28.9 °C 73.6 °F /  23.1 °C 29.91 in /  1012.8 hPa SSW 0.6 mph /  1 km/h 2.3 mph /  3.7 km/h 71 % 0.00 in /  0 mm
20:14 83.8 °F /  28.8 °C 73.4 °F /  23 °C 29.91 in /  1012.8 hPa SSW 1.3 mph /  2.1 km/h 3.5 mph /  5.6 km/h 71 % 0.00 in /  0 mm
20:19 83.6 °F /  28.7 °C 73.6 °F /  23.1 °C 29.91 in /  1012.8 hPa SSW 0.1 mph /  0.2 km/h 1.2 mph /  1.9 km/h 72 % 0.00 in /  0 mm
20:24 83.3 °F /  28.5 °C 73.3 °F /  22.9 °C 29.92 in /  1013.1 hPa South 0.1 mph /  0.2 km/h 1.2 mph /  1.9 km/h 72 % 0.00 in /  0 mm
20:29 83.1 °F /  28.4 °C 73.5 °F /  23.1 °C 29.92 in /  1013.1 hPa SW 1.0 mph /  1.6 km/h 2.3 mph /  3.7 km/h 73 % 0.00 in /  0 mm
20:34 82.9 °F /  28.3 °C 73.4 °F /  23 °C 29.92 in /  1013.1 hPa SW 2.1 mph /  3.4 km/h 3.5 mph /  5.6 km/h 73 % 0.00 in /  0 mm
20:39 82.6 °F /  28.1 °C 73.1 °F /  22.8 °C 29.92 in /  1013.1 hPa SW 0.4 mph /  0.6 km/h 3.5 mph /  5.6 km/h 73 % 0.00 in /  0 mm
20:40 82.6 °F /  28.1 °C 73.1 °F /  22.8 °C 29.92 in /  1013.1 hPa SW 0.7 mph /  1.1 km/h 3.5 mph /  5.6 km/h 73 % 0.00 in /  0 mm
20:45 82.3 °F /  27.9 °C 73.2 °F /  22.9 °C 29.92 in /  1013.1 hPa Calm   1.2 mph /  1.9 km/h 74 % 0.00 in /  0 mm
20:50 82.1 °F /  27.8 °C 73.0 °F /  22.8 °C 29.93 in /  1013.4 hPa SSW 0.2 mph /  0.3 km/h 2.0 mph /  3.2 km/h 74 % 0.00 in /  0 mm
20:52 82.1 °F /  27.8 °C 73.0 °F /  22.8 °C 29.93 in /  1013.4 hPa SSW 0.9 mph /  1.4 km/h 2.3 mph /  3.7 km/h 74 % 0.00 in /  0 mm
20:57 81.9 °F /  27.7 °C 72.8 °F /  22.7 °C 29.93 in /  1013.4 hPa SSW 0.1 mph /  0.2 km/h 1.2 mph /  1.9 km/h 74 % 0.00 in /  0 mm
21:02 81.6 °F /  27.6 °C 72.9 °F /  22.7 °C 29.93 in /  1013.4 hPa Calm   2.3 mph /  3.7 km/h 75 % 0.00 in /  0 mm
21:07 81.4 °F /  27.4 °C 72.7 °F /  22.6 °C 29.93 in /  1013.4 hPa Calm     75 % 0.00 in /  0 mm
21:12 81.2 °F /  27.3 °C 72.9 °F /  22.7 °C 29.93 in /  1013.4 hPa WSW 1.8 mph /  2.9 km/h 3.5 mph /  5.6 km/h 76 % 0.00 in /  0 mm
21:17 81.0 °F /  27.2 °C 72.7 °F /  22.6 °C 29.93 in /  1013.4 hPa Calm   1.2 mph /  1.9 km/h 76 % 0.00 in /  0 mm
21:22 80.8 °F /  27.1 °C 72.9 °F /  22.7 °C 29.93 in /  1013.4 hPa WSW 0.5 mph /  0.8 km/h 2.3 mph /  3.7 km/h 77 % 0.00 in /  0 mm
21:27 80.7 °F /  27.1 °C 72.8 °F /  22.7 °C 29.93 in /  1013.4 hPa WSW 0.9 mph /  1.4 km/h 3.5 mph /  5.6 km/h 77 % 0.00 in /  0 mm
21:32 80.5 °F /  26.9 °C 72.6 °F /  22.6 °C 29.93 in /  1013.4 hPa Calm   1.2 mph /  1.9 km/h 77 % 0.00 in /  0 mm
21:37 80.4 °F /  26.9 °C 72.9 °F /  22.7 °C 29.93 in /  1013.4 hPa Calm   1.2 mph /  1.9 km/h 78 % 0.00 in /  0 mm
21:42 80.3 °F /  26.8 °C 72.8 °F /  22.7 °C 29.93 in /  1013.4 hPa Calm     78 % 0.00 in /  0 mm
21:47 80.1 °F /  26.7 °C 72.6 °F /  22.6 °C 29.93 in /  1013.4 hPa WSW 0.1 mph /  0.2 km/h   78 % 0.00 in /  0 mm
21:52 80.0 °F /  26.7 °C 72.5 °F /  22.5 °C 29.93 in /  1013.4 hPa Calm     78 % 0.00 in /  0 mm
21:57 79.9 °F /  26.6 °C 72.8 °F /  22.7 °C 29.93 in /  1013.4 hPa WSW 0.6 mph /  1 km/h 3.5 mph /  5.6 km/h 79 % 0.00 in /  0 mm
22:02 79.8 °F /  26.6 °C 72.7 °F /  22.6 °C 29.93 in /  1013.4 hPa WSW 1.7 mph /  2.7 km/h 3.5 mph /  5.6 km/h 79 % 0.00 in /  0 mm
22:07 79.7 °F /  26.5 °C 72.6 °F /  22.6 °C 29.93 in /  1013.4 hPa WSW 1.0 mph /  1.6 km/h 2.3 mph /  3.7 km/h 79 % 0.00 in /  0 mm
22:12 79.6 °F /  26.4 °C 72.9 °F /  22.7 °C 29.93 in /  1013.4 hPa WSW 1.8 mph /  2.9 km/h 3.5 mph /  5.6 km/h 80 % 0.00 in /  0 mm
22:18 79.5 °F /  26.4 °C 72.8 °F /  22.7 °C 29.93 in /  1013.4 hPa WSW 2.4 mph /  3.9 km/h 3.5 mph /  5.6 km/h 80 % 0.00 in /  0 mm
22:23 79.4 °F /  26.3 °C 72.7 °F /  22.6 °C 29.93 in /  1013.4 hPa WSW 2.2 mph /  3.5 km/h 3.5 mph /  5.6 km/h 80 % 0.00 in /  0 mm
22:28 79.3 °F /  26.3 °C 72.6 °F /  22.6 °C 29.93 in /  1013.4 hPa WSW 0.6 mph /  1 km/h 2.3 mph /  3.7 km/h 80 % 0.00 in /  0 mm
22:33 79.2 °F /  26.2 °C 72.5 °F /  22.5 °C 29.93 in /  1013.4 hPa WSW 0.2 mph /  0.3 km/h 1.2 mph /  1.9 km/h 80 % 0.00 in /  0 mm
22:38 79.1 °F /  26.2 °C 72.8 °F /  22.7 °C 29.92 in /  1013.1 hPa WSW 0.8 mph /  1.3 km/h 2.3 mph /  3.7 km/h 81 % 0.00 in /  0 mm
22:43 79.0 °F /  26.1 °C 72.7 °F /  22.6 °C 29.93 in /  1013.4 hPa Calm   1.2 mph /  1.9 km/h 81 % 0.00 in /  0 mm
22:48 78.9 °F /  26.1 °C 72.6 °F /  22.6 °C 29.93 in /  1013.4 hPa WSW 0.1 mph /  0.2 km/h 2.3 mph /  3.7 km/h 81 % 0.00 in /  0 mm
22:53 78.8 °F /  26 °C 72.5 °F /  22.5 °C 29.93 in /  1013.4 hPa WSW 0.1 mph /  0.2 km/h 2.3 mph /  3.7 km/h 81 % 0.00 in /  0 mm
22:58 78.7 °F /  25.9 °C 72.7 °F /  22.6 °C 29.93 in /  1013.4 hPa WSW 0.3 mph /  0.5 km/h 2.3 mph /  3.7 km/h 82 % 0.00 in /  0 mm
23:03 78.5 °F /  25.8 °C 72.5 °F /  22.5 °C 29.93 in /  1013.4 hPa Calm   1.2 mph /  1.9 km/h 82 % 0.00 in /  0 mm
23:08 78.4 °F /  25.8 °C 72.4 °F /  22.4 °C 29.93 in /  1013.4 hPa WSW 0.7 mph /  1.1 km/h 2.3 mph /  3.7 km/h 82 % 0.00 in /  0 mm
23:13 78.4 °F /  25.8 °C 72.1 °F /  22.3 °C 29.93 in /  1013.4 hPa WSW 0.6 mph /  1 km/h 1.2 mph /  1.9 km/h 81 % 0.00 in /  0 mm
23:18 78.2 °F /  25.7 °C 72.3 °F /  22.4 °C 29.93 in /  1013.4 hPa WSW 0.3 mph /  0.5 km/h 1.2 mph /  1.9 km/h 82 % 0.00 in /  0 mm
23:23 78.1 °F /  25.6 °C 72.2 °F /  22.3 °C 29.93 in /  1013.4 hPa WSW 0.6 mph /  1 km/h 1.2 mph /  1.9 km/h 82 % 0.00 in /  0 mm
23:28 78.0 °F /  25.6 °C 72.1 °F /  22.3 °C 29.93 in /  1013.4 hPa WSW 1.2 mph /  1.9 km/h 2.3 mph /  3.7 km/h 82 % 0.00 in /  0 mm
23:33 77.9 °F /  25.5 °C 72.0 °F /  22.2 °C 29.93 in /  1013.4 hPa WSW 1.1 mph /  1.8 km/h 2.3 mph /  3.7 km/h 82 % 0.00 in /  0 mm
23:38 77.8 °F /  25.4 °C 72.2 °F /  22.3 °C 29.93 in /  1013.4 hPa Calm     83 % 0.00 in /  0 mm
23:43 77.8 °F /  25.4 °C 72.2 °F /  22.3 °C 29.93 in /  1013.4 hPa Calm     83 % 0.00 in /  0 mm
23:48 77.7 °F /  25.4 °C 72.5 °F /  22.5 °C 29.93 in /  1013.4 hPa WSW 0.3 mph /  0.5 km/h 1.2 mph /  1.9 km/h 84 % 0.00 in /  0 mm
23:53 77.6 °F /  25.3 °C 72.4 °F /  22.4 °C 29.93 in /  1013.4 hPa Calm   1.2 mph /  1.9 km/h 84 % 0.00 in /  0 mm
23:55 77.6 °F /  25.3 °C 72.4 °F /  22.4 °C 29.93 in /  1013.4 hPa WSW 0.2 mph /  0.3 km/h 1.2 mph /  1.9 km/h 84 % 0.00 in /  0 mm
Crab Meadow Weather
Compliments of Weather Underground - 3 mb

Script developed by  Jim McMurry - jmcmurry@mwt.net Adapted for the template by  Wim van der Kuil - Leuven-Template.eu

Weather Terms: Outlook - A hazardous weather outlook is issued daily to indicate that a hazardous weather or hydrologic event may occur in the next several days. The outlook will include information about potential severe thunderstorms , heavy rain or flooding, winter weather, extremes of heat or cold, etc., that may develop over the next 7 days with an emphasis on the first 24 hours of the forecast. It is intended to provide information to those who need considerable lead time to prepare for the event.